sensor_id;sensor_type;location;lat;lon;timestamp;P1;durP1;ratioP1;P2;durP2;ratioP2
9485;SDS011;4781;48.776;9.200;2023-05-27T00:00:16;9.50;;;4.07;;
9485;SDS011;4781;48.776;9.200;2023-05-27T00:02:45;12.00;;;4.17;;
9485;SDS011;4781;48.776;9.200;2023-05-27T00:05:13;12.20;;;4.50;;
9485;SDS011;4781;48.776;9.200;2023-05-27T00:07:42;10.40;;;4.20;;
9485;SDS011;4781;48.776;9.200;2023-05-27T00:10:11;12.53;;;4.30;;
9485;SDS011;4781;48.776;9.200;2023-05-27T00:12:39;9.35;;;4.15;;
9485;SDS011;4781;48.776;9.200;2023-05-27T00:15:08;9.88;;;4.35;;
9485;SDS011;4781;48.776;9.200;2023-05-27T00:17:37;10.28;;;4.15;;
9485;SDS011;4781;48.776;9.200;2023-05-27T00:20:06;12.37;;;4.20;;
9485;SDS011;4781;48.776;9.200;2023-05-27T00:22:35;11.15;;;4.53;;
9485;SDS011;4781;48.776;9.200;2023-05-27T00:25:04;10.18;;;4.55;;
9485;SDS011;4781;48.776;9.200;2023-05-27T00:27:33;12.23;;;4.30;;
9485;SDS011;4781;48.776;9.200;2023-05-27T00:30:01;12.53;;;4.62;;
9485;SDS011;4781;48.776;9.200;2023-05-27T00:32:30;9.95;;;3.75;;
9485;SDS011;4781;48.776;9.200;2023-05-27T00:34:58;11.45;;;4.05;;
9485;SDS011;4781;48.776;9.200;2023-05-27T00:37:27;11.18;;;4.20;;
9485;SDS011;4781;48.776;9.200;2023-05-27T00:39:55;10.95;;;4.20;;
9485;SDS011;4781;48.776;9.200;2023-05-27T00:42:23;13.55;;;4.50;;
9485;SDS011;4781;48.776;9.200;2023-05-27T00:44:52;12.58;;;4.47;;
9485;SDS011;4781;48.776;9.200;2023-05-27T00:47:20;11.05;;;3.90;;
9485;SDS011;4781;48.776;9.200;2023-05-27T00:49:51;11.90;;;4.30;;
9485;SDS011;4781;48.776;9.200;2023-05-27T00:52:19;10.03;;;4.08;;
9485;SDS011;4781;48.776;9.200;2023-05-27T00:54:48;10.95;;;4.08;;
9485;SDS011;4781;48.776;9.200;2023-05-27T00:57:17;11.78;;;4.25;;
9485;SDS011;4781;48.776;9.200;2023-05-27T00:59:46;9.88;;;4.12;;
9485;SDS011;4781;48.776;9.200;2023-05-27T01:02:15;9.68;;;3.90;;
9485;SDS011;4781;48.776;9.200;2023-05-27T01:04:43;12.13;;;4.30;;
9485;SDS011;4781;48.776;9.200;2023-05-27T01:07:17;14.20;;;4.05;;
9485;SDS011;4781;48.776;9.200;2023-05-27T01:10:15;15.90;;;4.37;;
9485;SDS011;4781;48.776;9.200;2023-05-27T01:13:02;10.88;;;4.05;;
9485;SDS011;4781;48.776;9.200;2023-05-27T01:15:37;11.20;;;3.90;;
9485;SDS011;4781;48.776;9.200;2023-05-27T01:18:07;10.75;;;4.12;;
9485;SDS011;4781;48.776;9.200;2023-05-27T01:20:38;12.28;;;4.20;;
9485;SDS011;4781;48.776;9.200;2023-05-27T01:23:09;12.35;;;4.03;;
9485;SDS011;4781;48.776;9.200;2023-05-27T01:25:38;13.25;;;3.70;;
9485;SDS011;4781;48.776;9.200;2023-05-27T01:28:06;8.38;;;3.72;;
9485;SDS011;4781;48.776;9.200;2023-05-27T01:30:35;9.55;;;3.77;;
9485;SDS011;4781;48.776;9.200;2023-05-27T01:33:10;10.82;;;3.72;;
9485;SDS011;4781;48.776;9.200;2023-05-27T01:35:52;9.80;;;4.20;;
9485;SDS011;4781;48.776;9.200;2023-05-27T01:38:24;10.15;;;3.50;;
9485;SDS011;4781;48.776;9.200;2023-05-27T01:40:56;11.08;;;4.10;;
9485;SDS011;4781;48.776;9.200;2023-05-27T01:43:25;17.15;;;4.05;;
9485;SDS011;4781;48.776;9.200;2023-05-27T01:45:54;16.37;;;4.67;;
9485;SDS011;4781;48.776;9.200;2023-05-27T01:48:23;11.20;;;4.53;;
9485;SDS011;4781;48.776;9.200;2023-05-27T01:50:52;12.75;;;4.33;;
9485;SDS011;4781;48.776;9.200;2023-05-27T01:53:20;12.82;;;4.15;;
9485;SDS011;4781;48.776;9.200;2023-05-27T01:55:48;12.45;;;4.40;;
9485;SDS011;4781;48.776;9.200;2023-05-27T01:58:17;13.32;;;4.60;;
9485;SDS011;4781;48.776;9.200;2023-05-27T02:00:45;14.85;;;4.62;;
9485;SDS011;4781;48.776;9.200;2023-05-27T02:03:14;9.53;;;4.00;;
9485;SDS011;4781;48.776;9.200;2023-05-27T02:05:42;12.18;;;4.15;;
9485;SDS011;4781;48.776;9.200;2023-05-27T02:08:11;13.38;;;4.42;;
9485;SDS011;4781;48.776;9.200;2023-05-27T02:10:39;12.25;;;4.60;;
9485;SDS011;4781;48.776;9.200;2023-05-27T02:13:07;12.78;;;4.33;;
9485;SDS011;4781;48.776;9.200;2023-05-27T02:15:36;11.10;;;4.30;;
9485;SDS011;4781;48.776;9.200;2023-05-27T02:18:04;13.62;;;4.37;;
9485;SDS011;4781;48.776;9.200;2023-05-27T02:20:33;13.75;;;4.35;;
9485;SDS011;4781;48.776;9.200;2023-05-27T02:23:03;13.15;;;4.65;;
9485;SDS011;4781;48.776;9.200;2023-05-27T02:25:34;10.65;;;3.95;;
9485;SDS011;4781;48.776;9.200;2023-05-27T02:28:02;12.50;;;4.53;;
9485;SDS011;4781;48.776;9.200;2023-05-27T02:30:31;10.20;;;4.15;;
9485;SDS011;4781;48.776;9.200;2023-05-27T02:32:59;13.28;;;3.87;;
9485;SDS011;4781;48.776;9.200;2023-05-27T02:35:28;11.97;;;4.12;;
9485;SDS011;4781;48.776;9.200;2023-05-27T02:37:56;11.40;;;4.05;;
9485;SDS011;4781;48.776;9.200;2023-05-27T02:40:25;11.95;;;4.50;;
9485;SDS011;4781;48.776;9.200;2023-05-27T02:42:56;11.70;;;4.42;;
9485;SDS011;4781;48.776;9.200;2023-05-27T02:45:24;13.35;;;4.05;;
9485;SDS011;4781;48.776;9.200;2023-05-27T02:47:53;13.55;;;4.25;;
9485;SDS011;4781;48.776;9.200;2023-05-27T02:50:22;15.95;;;4.67;;
9485;SDS011;4781;48.776;9.200;2023-05-27T02:52:54;18.55;;;4.40;;
9485;SDS011;4781;48.776;9.200;2023-05-27T02:55:23;10.10;;;3.98;;
9485;SDS011;4781;48.776;9.200;2023-05-27T02:57:51;10.85;;;4.83;;
9485;SDS011;4781;48.776;9.200;2023-05-27T03:00:20;14.03;;;3.83;;
9485;SDS011;4781;48.776;9.200;2023-05-27T03:02:48;12.73;;;3.80;;
9485;SDS011;4781;48.776;9.200;2023-05-27T03:05:16;13.08;;;4.35;;
9485;SDS011;4781;48.776;9.200;2023-05-27T03:07:45;10.60;;;4.00;;
9485;SDS011;4781;48.776;9.200;2023-05-27T03:10:13;13.25;;;4.35;;
9485;SDS011;4781;48.776;9.200;2023-05-27T03:12:42;11.33;;;4.20;;
9485;SDS011;4781;48.776;9.200;2023-05-27T03:15:10;12.68;;;4.47;;
9485;SDS011;4781;48.776;9.200;2023-05-27T03:17:38;13.75;;;3.92;;
9485;SDS011;4781;48.776;9.200;2023-05-27T03:20:07;12.45;;;4.22;;
9485;SDS011;4781;48.776;9.200;2023-05-27T03:22:36;13.15;;;4.70;;
9485;SDS011;4781;48.776;9.200;2023-05-27T03:25:04;11.70;;;4.53;;
9485;SDS011;4781;48.776;9.200;2023-05-27T03:27:33;12.90;;;4.50;;
9485;SDS011;4781;48.776;9.200;2023-05-27T03:30:02;10.98;;;4.45;;
9485;SDS011;4781;48.776;9.200;2023-05-27T03:32:33;13.10;;;4.67;;
9485;SDS011;4781;48.776;9.200;2023-05-27T03:35:01;14.23;;;4.95;;
9485;SDS011;4781;48.776;9.200;2023-05-27T03:37:30;13.03;;;4.10;;
9485;SDS011;4781;48.776;9.200;2023-05-27T03:39:58;12.70;;;4.85;;
9485;SDS011;4781;48.776;9.200;2023-05-27T03:42:27;12.98;;;4.35;;
9485;SDS011;4781;48.776;9.200;2023-05-27T03:44:55;12.23;;;4.35;;
9485;SDS011;4781;48.776;9.200;2023-05-27T03:47:23;14.60;;;4.53;;
9485;SDS011;4781;48.776;9.200;2023-05-27T03:49:52;14.28;;;4.62;;
9485;SDS011;4781;48.776;9.200;2023-05-27T03:52:20;11.75;;;4.00;;
9485;SDS011;4781;48.776;9.200;2023-05-27T03:54:51;13.85;;;3.83;;
9485;SDS011;4781;48.776;9.200;2023-05-27T03:57:19;10.28;;;3.95;;
9485;SDS011;4781;48.776;9.200;2023-05-27T03:59:47;14.93;;;4.80;;
9485;SDS011;4781;48.776;9.200;2023-05-27T04:02:16;13.40;;;4.60;;
9485;SDS011;4781;48.776;9.200;2023-05-27T04:04:44;10.88;;;4.20;;
9485;SDS011;4781;48.776;9.200;2023-05-27T04:07:13;16.45;;;4.35;;
9485;SDS011;4781;48.776;9.200;2023-05-27T04:09:43;14.68;;;4.55;;
9485;SDS011;4781;48.776;9.200;2023-05-27T04:12:11;13.25;;;4.17;;
9485;SDS011;4781;48.776;9.200;2023-05-27T04:14:40;15.20;;;4.92;;
9485;SDS011;4781;48.776;9.200;2023-05-27T04:17:08;12.85;;;4.45;;
9485;SDS011;4781;48.776;9.200;2023-05-27T04:19:37;13.72;;;4.55;;
9485;SDS011;4781;48.776;9.200;2023-05-27T04:22:05;12.75;;;4.00;;
9485;SDS011;4781;48.776;9.200;2023-05-27T04:24:34;14.20;;;4.28;;
9485;SDS011;4781;48.776;9.200;2023-05-27T04:27:02;14.43;;;4.20;;
9485;SDS011;4781;48.776;9.200;2023-05-27T04:29:31;13.38;;;4.28;;
9485;SDS011;4781;48.776;9.200;2023-05-27T04:32:00;13.62;;;4.47;;
9485;SDS011;4781;48.776;9.200;2023-05-27T04:34:28;12.60;;;4.25;;
9485;SDS011;4781;48.776;9.200;2023-05-27T04:36:56;13.10;;;4.35;;
9485;SDS011;4781;48.776;9.200;2023-05-27T04:39:26;15.60;;;4.83;;
9485;SDS011;4781;48.776;9.200;2023-05-27T04:41:55;15.78;;;4.83;;
9485;SDS011;4781;48.776;9.200;2023-05-27T04:44:24;12.82;;;3.60;;
9485;SDS011;4781;48.776;9.200;2023-05-27T04:46:52;14.53;;;4.50;;
9485;SDS011;4781;48.776;9.200;2023-05-27T04:49:24;11.93;;;4.33;;
9485;SDS011;4781;48.776;9.200;2023-05-27T04:51:52;13.85;;;4.25;;
9485;SDS011;4781;48.776;9.200;2023-05-27T04:54:21;15.65;;;5.17;;
9485;SDS011;4781;48.776;9.200;2023-05-27T04:56:50;12.37;;;4.53;;
9485;SDS011;4781;48.776;9.200;2023-05-27T04:59:18;14.93;;;4.60;;
9485;SDS011;4781;48.776;9.200;2023-05-27T05:01:49;15.65;;;5.62;;
9485;SDS011;4781;48.776;9.200;2023-05-27T05:04:25;17.37;;;4.53;;
9485;SDS011;4781;48.776;9.200;2023-05-27T05:06:54;13.00;;;3.90;;
9485;SDS011;4781;48.776;9.200;2023-05-27T05:09:22;18.45;;;4.87;;
9485;SDS011;4781;48.776;9.200;2023-05-27T05:11:50;17.00;;;4.80;;
9485;SDS011;4781;48.776;9.200;2023-05-27T05:14:19;16.85;;;4.67;;
9485;SDS011;4781;48.776;9.200;2023-05-27T05:16:47;12.40;;;4.45;;
9485;SDS011;4781;48.776;9.200;2023-05-27T05:19:16;16.32;;;4.70;;
9485;SDS011;4781;48.776;9.200;2023-05-27T05:21:44;13.93;;;4.40;;
9485;SDS011;4781;48.776;9.200;2023-05-27T05:24:12;12.68;;;4.20;;
9485;SDS011;4781;48.776;9.200;2023-05-27T05:26:41;14.60;;;4.10;;
9485;SDS011;4781;48.776;9.200;2023-05-27T05:29:11;14.45;;;4.90;;
9485;SDS011;4781;48.776;9.200;2023-05-27T05:31:39;18.23;;;4.73;;
9485;SDS011;4781;48.776;9.200;2023-05-27T05:34:09;18.70;;;5.22;;
9485;SDS011;4781;48.776;9.200;2023-05-27T05:36:38;17.90;;;4.92;;
9485;SDS011;4781;48.776;9.200;2023-05-27T05:39:06;19.20;;;5.00;;
9485;SDS011;4781;48.776;9.200;2023-05-27T05:41:35;17.12;;;4.65;;
9485;SDS011;4781;48.776;9.200;2023-05-27T05:44:03;15.43;;;5.12;;
9485;SDS011;4781;48.776;9.200;2023-05-27T05:46:32;15.08;;;4.55;;
9485;SDS011;4781;48.776;9.200;2023-05-27T05:49:00;12.80;;;4.70;;
9485;SDS011;4781;48.776;9.200;2023-05-27T05:51:28;13.50;;;4.85;;
9485;SDS011;4781;48.776;9.200;2023-05-27T05:53:57;20.30;;;5.28;;
9485;SDS011;4781;48.776;9.200;2023-05-27T05:56:26;14.75;;;4.83;;
9485;SDS011;4781;48.776;9.200;2023-05-27T05:58:57;15.30;;;5.10;;
9485;SDS011;4781;48.776;9.200;2023-05-27T06:01:26;13.22;;;4.58;;
9485;SDS011;4781;48.776;9.200;2023-05-27T06:03:54;16.17;;;4.53;;
9485;SDS011;4781;48.776;9.200;2023-05-27T06:06:23;19.10;;;5.12;;
9485;SDS011;4781;48.776;9.200;2023-05-27T06:08:52;16.75;;;4.85;;
9485;SDS011;4781;48.776;9.200;2023-05-27T06:11:20;15.70;;;4.92;;
9485;SDS011;4781;48.776;9.200;2023-05-27T06:13:49;16.32;;;5.10;;
9485;SDS011;4781;48.776;9.200;2023-05-27T06:16:17;16.15;;;5.12;;
9485;SDS011;4781;48.776;9.200;2023-05-27T06:18:45;14.40;;;5.12;;
9485;SDS011;4781;48.776;9.200;2023-05-27T06:21:14;12.78;;;4.70;;
9485;SDS011;4781;48.776;9.200;2023-05-27T06:23:42;14.03;;;4.85;;
9485;SDS011;4781;48.776;9.200;2023-05-27T06:26:11;18.55;;;5.47;;
9485;SDS011;4781;48.776;9.200;2023-05-27T06:28:40;13.45;;;4.78;;
9485;SDS011;4781;48.776;9.200;2023-05-27T06:31:08;11.63;;;4.80;;
9485;SDS011;4781;48.776;9.200;2023-05-27T06:33:37;16.57;;;5.08;;
9485;SDS011;4781;48.776;9.200;2023-05-27T06:36:05;16.65;;;4.75;;
9485;SDS011;4781;48.776;9.200;2023-05-27T06:38:33;15.55;;;5.55;;
9485;SDS011;4781;48.776;9.200;2023-05-27T06:41:02;14.95;;;5.15;;
9485;SDS011;4781;48.776;9.200;2023-05-27T06:43:30;13.48;;;4.62;;
9485;SDS011;4781;48.776;9.200;2023-05-27T06:45:59;17.40;;;5.70;;
9485;SDS011;4781;48.776;9.200;2023-05-27T06:48:27;14.45;;;4.80;;
9485;SDS011;4781;48.776;9.200;2023-05-27T06:50:56;16.15;;;4.85;;
9485;SDS011;4781;48.776;9.200;2023-05-27T06:53:24;15.40;;;4.75;;
9485;SDS011;4781;48.776;9.200;2023-05-27T06:55:53;12.00;;;4.95;;
9485;SDS011;4781;48.776;9.200;2023-05-27T06:58:22;14.65;;;4.58;;
9485;SDS011;4781;48.776;9.200;2023-05-27T07:00:51;17.57;;;4.33;;
9485;SDS011;4781;48.776;9.200;2023-05-27T07:03:20;15.48;;;5.15;;
9485;SDS011;4781;48.776;9.200;2023-05-27T07:05:48;13.85;;;5.22;;
9485;SDS011;4781;48.776;9.200;2023-05-27T07:08:17;14.03;;;5.08;;
9485;SDS011;4781;48.776;9.200;2023-05-27T07:10:45;14.85;;;4.80;;
9485;SDS011;4781;48.776;9.200;2023-05-27T07:13:14;14.95;;;4.53;;
9485;SDS011;4781;48.776;9.200;2023-05-27T07:15:42;14.18;;;4.55;;
9485;SDS011;4781;48.776;9.200;2023-05-27T07:18:10;17.40;;;5.20;;
9485;SDS011;4781;48.776;9.200;2023-05-27T07:20:39;15.28;;;5.30;;
9485;SDS011;4781;48.776;9.200;2023-05-27T07:23:07;11.03;;;4.70;;
9485;SDS011;4781;48.776;9.200;2023-05-27T07:25:35;10.85;;;4.33;;
9485;SDS011;4781;48.776;9.200;2023-05-27T07:28:04;15.65;;;5.00;;
9485;SDS011;4781;48.776;9.200;2023-05-27T07:30:32;12.58;;;4.67;;
9485;SDS011;4781;48.776;9.200;2023-05-27T07:33:01;16.55;;;4.35;;
9485;SDS011;4781;48.776;9.200;2023-05-27T07:35:29;17.65;;;5.12;;
9485;SDS011;4781;48.776;9.200;2023-05-27T07:37:57;13.80;;;4.40;;
9485;SDS011;4781;48.776;9.200;2023-05-27T07:40:28;12.10;;;4.58;;
9485;SDS011;4781;48.776;9.200;2023-05-27T07:42:56;13.50;;;4.72;;
9485;SDS011;4781;48.776;9.200;2023-05-27T07:45:24;11.20;;;4.37;;
9485;SDS011;4781;48.776;9.200;2023-05-27T07:47:53;18.17;;;4.70;;
9485;SDS011;4781;48.776;9.200;2023-05-27T07:50:21;15.30;;;5.22;;
9485;SDS011;4781;48.776;9.200;2023-05-27T07:52:49;12.07;;;4.87;;
9485;SDS011;4781;48.776;9.200;2023-05-27T07:55:18;12.53;;;4.45;;
9485;SDS011;4781;48.776;9.200;2023-05-27T07:57:46;11.97;;;4.30;;
9485;SDS011;4781;48.776;9.200;2023-05-27T08:00:15;13.90;;;4.80;;
9485;SDS011;4781;48.776;9.200;2023-05-27T08:02:44;13.90;;;4.60;;
9485;SDS011;4781;48.776;9.200;2023-05-27T08:05:12;12.35;;;4.97;;
9485;SDS011;4781;48.776;9.200;2023-05-27T08:07:40;15.75;;;5.83;;
9485;SDS011;4781;48.776;9.200;2023-05-27T08:10:09;11.45;;;4.78;;
9485;SDS011;4781;48.776;9.200;2023-05-27T08:12:37;13.50;;;5.00;;
9485;SDS011;4781;48.776;9.200;2023-05-27T08:15:07;11.43;;;4.67;;
9485;SDS011;4781;48.776;9.200;2023-05-27T08:17:35;12.43;;;4.50;;
9485;SDS011;4781;48.776;9.200;2023-05-27T08:20:05;12.00;;;4.60;;
9485;SDS011;4781;48.776;9.200;2023-05-27T08:22:34;12.75;;;4.87;;
9485;SDS011;4781;48.776;9.200;2023-05-27T08:25:02;12.95;;;4.85;;
9485;SDS011;4781;48.776;9.200;2023-05-27T08:30:19;12.97;;;5.10;;
9485;SDS011;4781;48.776;9.200;2023-05-27T08:32:47;13.83;;;4.92;;
9485;SDS011;4781;48.776;9.200;2023-05-27T08:35:16;15.20;;;4.97;;
9485;SDS011;4781;48.776;9.200;2023-05-27T08:37:45;12.73;;;5.08;;
9485;SDS011;4781;48.776;9.200;2023-05-27T08:40:14;17.02;;;5.53;;
9485;SDS011;4781;48.776;9.200;2023-05-27T08:42:44;10.70;;;4.62;;
9485;SDS011;4781;48.776;9.200;2023-05-27T08:45:14;14.70;;;4.75;;
9485;SDS011;4781;48.776;9.200;2023-05-27T08:47:43;12.60;;;4.62;;
9485;SDS011;4781;48.776;9.200;2023-05-27T08:50:13;13.20;;;5.35;;
9485;SDS011;4781;48.776;9.200;2023-05-27T08:52:45;14.55;;;5.30;;
9485;SDS011;4781;48.776;9.200;2023-05-27T08:55:18;16.05;;;4.80;;
9485;SDS011;4781;48.776;9.200;2023-05-27T08:57:54;10.65;;;4.50;;
9485;SDS011;4781;48.776;9.200;2023-05-27T09:00:27;11.60;;;4.15;;
9485;SDS011;4781;48.776;9.200;2023-05-27T09:02:55;12.35;;;4.60;;
9485;SDS011;4781;48.776;9.200;2023-05-27T09:05:25;10.70;;;4.50;;
9485;SDS011;4781;48.776;9.200;2023-05-27T09:07:54;12.55;;;4.95;;
9485;SDS011;4781;48.776;9.200;2023-05-27T09:10:22;11.90;;;4.40;;
9485;SDS011;4781;48.776;9.200;2023-05-27T09:12:52;12.98;;;4.83;;
9485;SDS011;4781;48.776;9.200;2023-05-27T09:15:22;10.93;;;4.85;;
9485;SDS011;4781;48.776;9.200;2023-05-27T09:17:52;12.00;;;4.55;;
9485;SDS011;4781;48.776;9.200;2023-05-27T09:20:26;11.50;;;4.87;;
9485;SDS011;4781;48.776;9.200;2023-05-27T09:23:01;13.88;;;5.40;;
9485;SDS011;4781;48.776;9.200;2023-05-27T09:25:30;11.45;;;4.70;;
9485;SDS011;4781;48.776;9.200;2023-05-27T09:27:59;12.68;;;5.12;;
9485;SDS011;4781;48.776;9.200;2023-05-27T09:30:31;12.55;;;5.00;;
9485;SDS011;4781;48.776;9.200;2023-05-27T09:33:00;10.85;;;4.70;;
9485;SDS011;4781;48.776;9.200;2023-05-27T09:35:30;11.53;;;4.53;;
9485;SDS011;4781;48.776;9.200;2023-05-27T09:38:06;10.18;;;4.95;;
9485;SDS011;4781;48.776;9.200;2023-05-27T09:40:35;11.03;;;4.80;;
9485;SDS011;4781;48.776;9.200;2023-05-27T09:43:04;10.48;;;4.62;;
9485;SDS011;4781;48.776;9.200;2023-05-27T09:45:33;11.00;;;4.85;;
9485;SDS011;4781;48.776;9.200;2023-05-27T09:48:02;11.60;;;4.80;;
9485;SDS011;4781;48.776;9.200;2023-05-27T09:50:32;15.95;;;4.83;;
9485;SDS011;4781;48.776;9.200;2023-05-27T09:53:03;11.95;;;4.87;;
9485;SDS011;4781;48.776;9.200;2023-05-27T09:55:32;11.70;;;4.47;;
9485;SDS011;4781;48.776;9.200;2023-05-27T09:58:01;9.53;;;5.10;;
9485;SDS011;4781;48.776;9.200;2023-05-27T10:00:30;9.40;;;4.33;;
9485;SDS011;4781;48.776;9.200;2023-05-27T10:03:00;9.78;;;4.45;;
9485;SDS011;4781;48.776;9.200;2023-05-27T10:05:29;12.63;;;5.28;;
9485;SDS011;4781;48.776;9.200;2023-05-27T10:07:58;11.10;;;4.95;;
9485;SDS011;4781;48.776;9.200;2023-05-27T10:10:27;11.55;;;4.90;;
9485;SDS011;4781;48.776;9.200;2023-05-27T10:12:55;9.73;;;4.90;;
9485;SDS011;4781;48.776;9.200;2023-05-27T10:15:27;12.37;;;4.90;;
9485;SDS011;4781;48.776;9.200;2023-05-27T10:18:07;11.95;;;4.92;;
9485;SDS011;4781;48.776;9.200;2023-05-27T10:20:40;10.72;;;4.25;;
9485;SDS011;4781;48.776;9.200;2023-05-27T10:23:14;10.32;;;4.72;;
9485;SDS011;4781;48.776;9.200;2023-05-27T10:25:46;10.80;;;4.53;;
9485;SDS011;4781;48.776;9.200;2023-05-27T10:31:14;11.33;;;4.53;;
9485;SDS011;4781;48.776;9.200;2023-05-27T10:33:48;11.50;;;4.67;;
9485;SDS011;4781;48.776;9.200;2023-05-27T10:36:24;10.70;;;4.83;;
9485;SDS011;4781;48.776;9.200;2023-05-27T10:39:02;8.70;;;4.28;;
9485;SDS011;4781;48.776;9.200;2023-05-27T10:41:42;9.75;;;4.85;;
9485;SDS011;4781;48.776;9.200;2023-05-27T10:44:27;11.88;;;4.72;;
9485;SDS011;4781;48.776;9.200;2023-05-27T10:47:10;9.63;;;4.30;;
9485;SDS011;4781;48.776;9.200;2023-05-27T10:49:41;9.88;;;4.70;;
9485;SDS011;4781;48.776;9.200;2023-05-27T10:52:15;10.20;;;4.83;;
9485;SDS011;4781;48.776;9.200;2023-05-27T10:54:45;11.25;;;5.17;;
9485;SDS011;4781;48.776;9.200;2023-05-27T10:57:18;10.60;;;4.53;;
9485;SDS011;4781;48.776;9.200;2023-05-27T10:59:48;10.23;;;4.70;;
9485;SDS011;4781;48.776;9.200;2023-05-27T11:02:19;8.70;;;4.83;;
9485;SDS011;4781;48.776;9.200;2023-05-27T11:04:48;12.53;;;4.87;;
9485;SDS011;4781;48.776;9.200;2023-05-27T11:07:17;9.83;;;5.00;;
9485;SDS011;4781;48.776;9.200;2023-05-27T11:09:47;12.73;;;5.22;;
9485;SDS011;4781;48.776;9.200;2023-05-27T11:12:22;11.22;;;4.53;;
9485;SDS011;4781;48.776;9.200;2023-05-27T11:14:55;9.08;;;4.65;;
9485;SDS011;4781;48.776;9.200;2023-05-27T11:17:23;11.90;;;4.85;;
9485;SDS011;4781;48.776;9.200;2023-05-27T11:19:52;8.70;;;4.10;;
9485;SDS011;4781;48.776;9.200;2023-05-27T11:22:22;10.25;;;4.58;;
9485;SDS011;4781;48.776;9.200;2023-05-27T11:24:57;10.18;;;4.78;;
9485;SDS011;4781;48.776;9.200;2023-05-27T11:27:38;11.30;;;4.90;;
9485;SDS011;4781;48.776;9.200;2023-05-27T11:30:07;12.50;;;6.37;;
9485;SDS011;4781;48.776;9.200;2023-05-27T11:32:37;8.93;;;5.20;;
9485;SDS011;4781;48.776;9.200;2023-05-27T11:35:19;12.55;;;4.90;;
9485;SDS011;4781;48.776;9.200;2023-05-27T11:37:45;9.55;;;5.12;;
9485;SDS011;4781;48.776;9.200;2023-05-27T11:40:17;8.38;;;4.58;;
9485;SDS011;4781;48.776;9.200;2023-05-27T11:42:46;10.32;;;4.70;;
9485;SDS011;4781;48.776;9.200;2023-05-27T11:45:15;11.22;;;4.60;;
9485;SDS011;4781;48.776;9.200;2023-05-27T11:47:45;11.00;;;4.78;;
9485;SDS011;4781;48.776;9.200;2023-05-27T11:50:17;7.90;;;4.47;;
9485;SDS011;4781;48.776;9.200;2023-05-27T11:52:56;10.75;;;4.17;;
9485;SDS011;4781;48.776;9.200;2023-05-27T11:55:24;11.57;;;4.90;;
9485;SDS011;4781;48.776;9.200;2023-05-27T11:57:53;10.88;;;5.15;;
9485;SDS011;4781;48.776;9.200;2023-05-27T12:00:21;10.13;;;4.97;;
9485;SDS011;4781;48.776;9.200;2023-05-27T12:02:49;8.65;;;4.60;;
9485;SDS011;4781;48.776;9.200;2023-05-27T12:05:18;8.73;;;4.60;;
9485;SDS011;4781;48.776;9.200;2023-05-27T12:07:46;9.78;;;4.80;;
9485;SDS011;4781;48.776;9.200;2023-05-27T12:10:15;8.78;;;5.00;;
9485;SDS011;4781;48.776;9.200;2023-05-27T12:12:44;9.38;;;5.15;;
9485;SDS011;4781;48.776;9.200;2023-05-27T12:15:12;9.50;;;5.20;;
9485;SDS011;4781;48.776;9.200;2023-05-27T12:17:41;9.85;;;5.12;;
9485;SDS011;4781;48.776;9.200;2023-05-27T12:20:09;10.75;;;4.85;;
9485;SDS011;4781;48.776;9.200;2023-05-27T12:22:38;10.80;;;5.33;;
9485;SDS011;4781;48.776;9.200;2023-05-27T12:25:06;12.15;;;5.37;;
9485;SDS011;4781;48.776;9.200;2023-05-27T12:27:35;8.25;;;4.50;;
9485;SDS011;4781;48.776;9.200;2023-05-27T12:30:04;11.24;;;5.08;;
9485;SDS011;4781;48.776;9.200;2023-05-27T12:32:34;11.30;;;5.95;;
9485;SDS011;4781;48.776;9.200;2023-05-27T12:35:02;10.60;;;4.92;;
9485;SDS011;4781;48.776;9.200;2023-05-27T12:37:31;11.35;;;5.10;;
9485;SDS011;4781;48.776;9.200;2023-05-27T12:40:00;9.85;;;4.97;;
9485;SDS011;4781;48.776;9.200;2023-05-27T12:42:30;9.50;;;4.78;;
9485;SDS011;4781;48.776;9.200;2023-05-27T12:44:58;13.18;;;5.45;;
9485;SDS011;4781;48.776;9.200;2023-05-27T12:47:27;11.00;;;4.87;;
9485;SDS011;4781;48.776;9.200;2023-05-27T12:49:55;10.45;;;5.42;;
9485;SDS011;4781;48.776;9.200;2023-05-27T12:52:25;10.05;;;5.65;;
9485;SDS011;4781;48.776;9.200;2023-05-27T12:54:54;10.20;;;5.60;;
9485;SDS011;4781;48.776;9.200;2023-05-27T12:57:22;10.10;;;5.35;;
9485;SDS011;4781;48.776;9.200;2023-05-27T12:59:51;11.33;;;5.58;;
9485;SDS011;4781;48.776;9.200;2023-05-27T13:02:20;10.82;;;5.47;;
9485;SDS011;4781;48.776;9.200;2023-05-27T13:04:48;10.70;;;5.10;;
9485;SDS011;4781;48.776;9.200;2023-05-27T13:07:16;11.12;;;5.90;;
9485;SDS011;4781;48.776;9.200;2023-05-27T13:09:45;11.03;;;5.35;;
9485;SDS011;4781;48.776;9.200;2023-05-27T13:12:13;10.60;;;5.05;;
9485;SDS011;4781;48.776;9.200;2023-05-27T13:14:43;10.35;;;5.25;;
9485;SDS011;4781;48.776;9.200;2023-05-27T13:17:12;10.35;;;5.65;;
9485;SDS011;4781;48.776;9.200;2023-05-27T13:19:41;8.28;;;5.40;;
9485;SDS011;4781;48.776;9.200;2023-05-27T13:22:11;10.48;;;5.42;;
9485;SDS011;4781;48.776;9.200;2023-05-27T13:24:41;11.35;;;6.10;;
9485;SDS011;4781;48.776;9.200;2023-05-27T13:27:09;11.20;;;5.33;;
9485;SDS011;4781;48.776;9.200;2023-05-27T13:29:39;10.90;;;5.95;;
9485;SDS011;4781;48.776;9.200;2023-05-27T13:32:08;9.23;;;5.10;;
9485;SDS011;4781;48.776;9.200;2023-05-27T13:34:36;9.60;;;4.62;;
9485;SDS011;4781;48.776;9.200;2023-05-27T13:37:05;15.18;;;4.97;;
9485;SDS011;4781;48.776;9.200;2023-05-27T13:39:33;9.20;;;4.42;;
9485;SDS011;4781;48.776;9.200;2023-05-27T13:42:02;12.55;;;4.80;;
9485;SDS011;4781;48.776;9.200;2023-05-27T13:44:31;12.53;;;4.67;;
9485;SDS011;4781;48.776;9.200;2023-05-27T13:47:00;8.55;;;4.30;;
9485;SDS011;4781;48.776;9.200;2023-05-27T13:49:28;11.05;;;5.40;;
9485;SDS011;4781;48.776;9.200;2023-05-27T13:51:57;14.00;;;5.00;;
9485;SDS011;4781;48.776;9.200;2023-05-27T13:54:25;13.05;;;5.37;;
9485;SDS011;4781;48.776;9.200;2023-05-27T13:56:53;12.03;;;5.67;;
9485;SDS011;4781;48.776;9.200;2023-05-27T13:59:22;10.48;;;4.78;;
9485;SDS011;4781;48.776;9.200;2023-05-27T14:01:50;8.95;;;4.80;;
9485;SDS011;4781;48.776;9.200;2023-05-27T14:04:20;8.50;;;4.70;;
9485;SDS011;4781;48.776;9.200;2023-05-27T14:06:48;7.95;;;4.28;;
9485;SDS011;4781;48.776;9.200;2023-05-27T14:09:18;10.25;;;4.40;;
9485;SDS011;4781;48.776;9.200;2023-05-27T14:11:46;12.40;;;4.75;;
9485;SDS011;4781;48.776;9.200;2023-05-27T14:14:14;9.70;;;4.87;;
9485;SDS011;4781;48.776;9.200;2023-05-27T14:16:43;9.20;;;4.70;;
9485;SDS011;4781;48.776;9.200;2023-05-27T14:19:12;8.23;;;4.70;;
9485;SDS011;4781;48.776;9.200;2023-05-27T14:21:41;9.05;;;3.90;;
9485;SDS011;4781;48.776;9.200;2023-05-27T14:24:09;10.28;;;4.00;;
9485;SDS011;4781;48.776;9.200;2023-05-27T14:26:38;8.48;;;4.10;;
9485;SDS011;4781;48.776;9.200;2023-05-27T14:29:07;7.83;;;4.17;;
9485;SDS011;4781;48.776;9.200;2023-05-27T14:31:35;10.20;;;4.40;;
9485;SDS011;4781;48.776;9.200;2023-05-27T14:34:03;9.08;;;4.03;;
9485;SDS011;4781;48.776;9.200;2023-05-27T14:36:32;7.40;;;3.77;;
9485;SDS011;4781;48.776;9.200;2023-05-27T14:39:00;11.03;;;4.33;;
9485;SDS011;4781;48.776;9.200;2023-05-27T14:41:31;6.87;;;4.03;;
9485;SDS011;4781;48.776;9.200;2023-05-27T14:43:59;7.87;;;3.58;;
9485;SDS011;4781;48.776;9.200;2023-05-27T14:46:28;7.65;;;3.58;;
9485;SDS011;4781;48.776;9.200;2023-05-27T14:48:57;8.60;;;3.62;;
9485;SDS011;4781;48.776;9.200;2023-05-27T14:51:25;6.95;;;3.55;;
9485;SDS011;4781;48.776;9.200;2023-05-27T14:53:53;6.87;;;3.83;;
9485;SDS011;4781;48.776;9.200;2023-05-27T14:56:22;9.20;;;3.90;;
9485;SDS011;4781;48.776;9.200;2023-05-27T14:58:51;9.00;;;4.00;;
9485;SDS011;4781;48.776;9.200;2023-05-27T15:01:20;8.15;;;3.67;;
9485;SDS011;4781;48.776;9.200;2023-05-27T15:03:48;7.42;;;3.55;;
9485;SDS011;4781;48.776;9.200;2023-05-27T15:06:17;8.08;;;3.42;;
9485;SDS011;4781;48.776;9.200;2023-05-27T15:08:45;9.00;;;3.70;;
9485;SDS011;4781;48.776;9.200;2023-05-27T15:11:14;7.28;;;3.47;;
9485;SDS011;4781;48.776;9.200;2023-05-27T15:13:42;8.78;;;3.47;;
9485;SDS011;4781;48.776;9.200;2023-05-27T15:16:10;7.62;;;3.40;;
9485;SDS011;4781;48.776;9.200;2023-05-27T15:18:39;10.30;;;4.30;;
9485;SDS011;4781;48.776;9.200;2023-05-27T15:21:07;7.60;;;3.77;;
9485;SDS011;4781;48.776;9.200;2023-05-27T15:23:35;7.12;;;3.50;;